createdAt,value
2023-02-12T00:02:10.785Z,100699.31
2023-02-12T00:04:37.006Z,100695.97
2023-02-12T00:07:03.239Z,100690.00
2023-02-12T00:09:29.439Z,100682.78
2023-02-12T00:11:55.643Z,100679.63
2023-02-12T00:14:21.846Z,100675.22
2023-02-12T00:16:48.064Z,100663.28
2023-02-12T00:19:14.280Z,100663.69
2023-02-12T00:21:40.508Z,100666.06
2023-02-12T00:24:06.756Z,100647.13
2023-02-12T00:26:32.968Z,100638.13
2023-02-12T00:28:59.168Z,100624.94
2023-02-12T00:31:27.003Z,100622.34
2023-02-12T00:33:53.389Z,100615.59
2023-02-12T00:36:20.430Z,100604.19
2023-02-12T00:38:46.680Z,100603.63
2023-02-12T00:41:12.910Z,100596.66
2023-02-12T00:43:39.145Z,100583.09
2023-02-12T00:46:05.448Z,100573.53
2023-02-12T00:48:31.678Z,100568.97
2023-02-12T00:50:57.888Z,100561.63
2023-02-12T00:53:24.105Z,100548.22
2023-02-12T00:55:50.335Z,100530.09
2023-02-12T00:58:18.789Z,100534.69
2023-02-12T01:00:45.244Z,100519.34
2023-02-12T01:03:11.454Z,100509.97
2023-02-12T01:05:37.672Z,100498.81
2023-02-12T01:08:03.915Z,100479.47
2023-02-12T01:10:30.129Z,100461.69
2023-02-12T01:12:56.344Z,100456.69
2023-02-12T01:15:22.671Z,100438.78
2023-02-12T01:17:51.032Z,100427.59
2023-02-12T01:20:17.354Z,100423.44
2023-02-12T01:22:43.616Z,100406.66
2023-02-12T01:25:10.066Z,100394.91
2023-02-12T01:27:36.351Z,100385.91
2023-02-12T01:30:02.675Z,100360.56
2023-02-12T01:32:28.897Z,100331.63
2023-02-12T01:34:55.101Z,100338.25
2023-02-12T01:37:21.305Z,100314.34
2023-02-12T01:39:47.502Z,100295.19
2023-02-12T01:42:13.935Z,100279.06
2023-02-12T01:44:43.978Z,100252.91
2023-02-12T01:47:17.007Z,100232.41
2023-02-12T01:49:43.955Z,100207.25
2023-02-12T01:52:13.002Z,100176.94
2023-02-12T01:54:39.197Z,100133.91
2023-02-12T01:57:05.608Z,100099.75
2023-02-12T01:59:31.819Z,100076.44
2023-02-12T02:01:58.084Z,100047.00
2023-02-12T02:04:25.837Z,100032.91
2023-02-12T02:06:58.897Z,100011.72
2023-02-12T02:09:25.145Z,99995.38
2023-02-12T02:11:51.355Z,99971.28
2023-02-12T02:14:17.558Z,99956.97
2023-02-12T02:16:45.100Z,99938.94
2023-02-12T02:19:23.203Z,99923.81
2023-02-12T02:22:02.444Z,99897.19
2023-02-12T02:24:37.158Z,99884.22
2023-02-12T02:27:06.347Z,99858.91
2023-02-12T02:29:41.823Z,99871.25
2023-02-12T02:32:08.465Z,99854.25
2023-02-12T02:34:39.082Z,99843.56
2023-02-12T02:37:24.049Z,99825.97
2023-02-12T02:39:51.849Z,99808.06
2023-02-12T02:42:35.365Z,99777.50
2023-02-12T02:45:08.054Z,99761.88
2023-02-12T02:47:36.555Z,99748.91
2023-02-12T02:50:04.209Z,99731.78
2023-02-12T02:52:33.903Z,99714.28
2023-02-12T02:55:01.378Z,99704.56
2023-02-12T02:57:39.824Z,99687.56
2023-02-12T03:00:13.655Z,99672.00
2023-02-12T03:02:40.475Z,99651.94
2023-02-12T03:05:10.582Z,99641.38
2023-02-12T03:07:37.760Z,99614.63
2023-02-12T03:10:05.368Z,99587.72
2023-02-12T03:12:33.544Z,99578.84
2023-02-12T03:15:01.793Z,99562.28
2023-02-12T03:17:29.542Z,99534.78
2023-02-12T03:20:06.078Z,99521.53
2023-02-12T03:22:33.687Z,99508.31
2023-02-12T03:25:06.266Z,99495.13
2023-02-12T03:27:32.852Z,99484.25
2023-02-12T03:29:59.214Z,99460.94
2023-02-12T03:32:25.372Z,99466.09
2023-02-12T03:34:51.542Z,99454.22
2023-02-12T03:37:19.293Z,99447.97
2023-02-12T03:39:49.631Z,99448.22
2023-02-12T03:42:22.172Z,99442.00
2023-02-12T03:44:49.782Z,99428.28
2023-02-12T03:47:35.628Z,99420.22
2023-02-12T03:50:01.786Z,99417.31
2023-02-12T03:52:28.185Z,99407.00
2023-02-12T03:54:54.402Z,99382.91
2023-02-12T03:57:21.411Z,99361.88
2023-02-12T03:59:47.618Z,99338.78
2023-02-12T04:02:14.045Z,99320.41
2023-02-12T04:04:40.372Z,99278.44
2023-02-12T04:07:06.614Z,99268.09
2023-02-12T04:09:32.828Z,99249.13
2023-02-12T04:12:17.816Z,99213.91
2023-02-12T04:14:54.775Z,99193.44
2023-02-12T04:17:30.206Z,99177.34
2023-02-12T04:20:08.779Z,99147.28
2023-02-12T04:22:43.101Z,99133.22
2023-02-12T04:25:17.118Z,99116.69
2023-02-12T04:27:48.662Z,99102.69
2023-02-12T04:30:19.851Z,99090.97
2023-02-12T04:32:59.760Z,99092.28
2023-02-12T04:35:35.720Z,99068.72
2023-02-12T04:38:04.029Z,99070.00
2023-02-12T04:40:30.238Z,99051.88
2023-02-12T04:42:56.431Z,99044.63
2023-02-12T04:45:23.859Z,99030.63
2023-02-12T04:47:50.059Z,99033.72
2023-02-12T04:50:16.322Z,99015.59
2023-02-12T04:52:42.510Z,99010.16
2023-02-12T04:55:08.722Z,99003.66
2023-02-12T04:57:34.922Z,98992.03
2023-02-12T05:00:01.146Z,98992.53
2023-02-12T05:02:27.347Z,98959.13
2023-02-12T05:04:53.573Z,98945.91
2023-02-12T05:07:19.775Z,98935.81
2023-02-12T05:09:46.003Z,98901.09
2023-02-12T05:12:12.219Z,98892.03
2023-02-12T05:14:38.447Z,98863.28
2023-02-12T05:17:04.643Z,98849.53
2023-02-12T05:19:30.847Z,98852.13
2023-02-12T05:21:57.058Z,98840.22
2023-02-12T05:24:23.273Z,98833.72
2023-02-12T05:26:49.866Z,98823.34
2023-02-12T05:29:16.068Z,98812.75
2023-02-12T05:31:42.394Z,98809.63
2023-02-12T05:34:09.728Z,98805.22
2023-02-12T05:36:35.951Z,98787.09
2023-02-12T05:39:02.147Z,98782.94
2023-02-12T05:41:28.441Z,98785.53
2023-02-12T05:43:54.814Z,98778.53
2023-02-12T05:46:21.598Z,98774.41
2023-02-12T05:48:48.269Z,98772.84
2023-02-12T05:51:15.365Z,98779.06
2023-02-12T05:53:41.744Z,98779.84
2023-02-12T05:56:07.906Z,98787.59
2023-02-12T05:58:34.124Z,98773.38
2023-02-12T06:01:00.381Z,98777.25
2023-02-12T06:03:26.622Z,98782.69
2023-02-12T06:08:33.873Z,98786.81
2023-02-12T06:11:00.899Z,98784.22
2023-02-12T06:13:27.114Z,98787.09
2023-02-12T06:18:35.354Z,98795.13
2023-02-12T06:21:03.186Z,98783.47
2023-02-12T06:23:29.398Z,98797.47
2023-02-12T06:25:56.162Z,98816.63
2023-02-12T06:28:22.709Z,98818.69
2023-02-12T06:30:48.976Z,98830.88
2023-02-12T06:33:15.236Z,98832.16
2023-02-12T06:35:41.484Z,98843.06
2023-02-12T06:38:07.693Z,98850.28
2023-02-12T06:40:33.918Z,98859.09
2023-02-12T06:43:00.418Z,98868.97
2023-02-12T06:45:26.829Z,98875.94
2023-02-12T06:47:53.053Z,98899.25
2023-02-12T06:50:19.280Z,98897.19
2023-02-12T06:52:48.228Z,98911.97
2023-02-12T06:55:14.441Z,98926.22
2023-02-12T06:57:40.665Z,98928.53
2023-02-12T07:00:07.178Z,98944.38
2023-02-12T07:02:33.711Z,98952.91
2023-02-12T07:04:59.991Z,98969.50
2023-02-12T07:07:27.670Z,98981.13
2023-02-12T07:09:53.875Z,98994.38
2023-02-12T07:12:20.080Z,98997.25
2023-02-12T07:14:46.374Z,99028.09
2023-02-12T07:17:12.605Z,99039.25
2023-02-12T07:19:38.820Z,99054.81
2023-02-12T07:22:05.046Z,99049.13
2023-02-12T07:24:31.264Z,99010.75
2023-02-12T07:26:57.494Z,99022.44
2023-02-12T07:29:23.722Z,99041.13
2023-02-12T07:31:49.995Z,99057.22
2023-02-12T07:34:16.219Z,99072.75
2023-02-12T07:36:42.441Z,99097.91
2023-02-12T07:39:10.043Z,99120.44
2023-02-12T07:41:36.306Z,99141.22
2023-02-12T07:44:03.397Z,99167.63
2023-02-12T07:46:30.426Z,99194.13
2023-02-12T07:48:57.310Z,99231.72
2023-02-12T07:51:23.535Z,99272.44
2023-02-12T07:53:49.873Z,99322.53
2023-02-12T07:56:19.942Z,99372.28
2023-02-12T07:58:46.640Z,99412.75
2023-02-12T08:01:13.684Z,99460.75
2023-02-12T08:03:39.883Z,99491.66
2023-02-12T08:06:12.971Z,99529.53
2023-02-12T08:08:39.234Z,99563.78
2023-02-12T08:11:06.325Z,99596.97
2023-02-12T08:13:32.553Z,99657.94
2023-02-12T08:16:02.461Z,99724.28
2023-02-12T08:18:28.904Z,99766.09
2023-02-12T08:20:55.128Z,99816.03
2023-02-12T08:23:21.348Z,99847.97
2023-02-12T08:25:52.876Z,99883.81
2023-02-12T08:28:19.177Z,99927.91
2023-02-12T08:30:45.487Z,99969.19
2023-02-12T08:33:11.836Z,100006.63
2023-02-12T08:35:38.110Z,100026.66
2023-02-12T08:38:04.332Z,100083.94
2023-02-12T08:40:30.568Z,100133.47
2023-02-12T08:42:56.832Z,100151.31
2023-02-12T08:45:23.062Z,100208.06
2023-02-12T08:47:49.283Z,100226.66
2023-02-12T08:50:15.522Z,100280.03
2023-02-12T08:52:43.099Z,100310.16
2023-02-12T08:55:10.329Z,100332.19
2023-02-12T08:57:36.550Z,100343.81
2023-02-12T09:00:03.022Z,100402.34
2023-02-12T09:02:29.281Z,100457.91
2023-02-12T09:04:55.588Z,100519.03
2023-02-12T09:07:21.815Z,100565.31
2023-02-12T09:09:48.022Z,100587.69
2023-02-12T09:12:14.241Z,100610.16
2023-02-12T09:14:40.475Z,100648.06
2023-02-12T09:17:06.767Z,100688.22
2023-02-12T09:19:33.041Z,100719.47
2023-02-12T09:21:59.259Z,100747.00
2023-02-12T09:27:05.841Z,100780.56
2023-02-12T09:29:33.765Z,100814.84
2023-02-12T09:32:00.133Z,100859.97
2023-02-12T09:34:26.388Z,100905.78
2023-02-12T09:36:53.137Z,100934.31
2023-02-12T09:39:19.471Z,100989.91
2023-02-12T09:41:45.682Z,101031.88
2023-02-12T09:44:33.402Z,101042.88
2023-02-12T09:47:01.158Z,101061.06
2023-02-12T09:49:43.761Z,101076.34
2023-02-12T09:52:12.900Z,101109.13
2023-02-12T09:54:39.166Z,101148.69
2023-02-12T09:57:06.690Z,101172.88
2023-02-12T09:59:38.476Z,101211.66
2023-02-12T10:02:06.894Z,101225.66
2023-02-12T10:04:33.187Z,101244.84
2023-02-12T10:07:05.460Z,101268.81
2023-02-12T10:09:37.710Z,101288.63
2023-02-12T10:12:16.703Z,101322.00
2023-02-12T10:14:56.097Z,101367.00
2023-02-12T10:17:22.269Z,101378.53
2023-02-12T10:20:06.536Z,101435.41
2023-02-12T10:22:55.887Z,101470.19
2023-02-12T10:25:24.401Z,101497.59
2023-02-12T10:27:51.410Z,101526.41
2023-02-12T10:30:31.611Z,101567.66
2023-02-12T10:33:04.545Z,101606.47
2023-02-12T10:35:30.763Z,101672.53
2023-02-12T10:38:02.960Z,101710.59
2023-02-12T10:40:30.291Z,101741.66
2023-02-12T10:42:56.845Z,101795.53
2023-02-12T10:45:33.581Z,101832.78
2023-02-12T10:48:08.979Z,101874.09
2023-02-12T10:50:44.537Z,101919.56
2023-02-12T10:53:16.704Z,101964.28
2023-02-12T10:55:42.907Z,101992.56
2023-02-12T10:58:24.501Z,102039.00
2023-02-12T11:01:00.072Z,102038.88
2023-02-12T11:03:30.369Z,102097.41
2023-02-12T11:05:56.862Z,102124.31
2023-02-12T11:08:28.049Z,102155.81
2023-02-12T11:10:54.272Z,102182.09
2023-02-12T11:13:22.164Z,102202.41
2023-02-12T11:15:48.422Z,102233.44
2023-02-12T11:18:30.785Z,102243.13
2023-02-12T11:21:00.839Z,102267.16
2023-02-12T11:23:34.213Z,102283.41
2023-02-12T11:26:07.724Z,102290.06
2023-02-12T11:28:35.090Z,102307.84
2023-02-12T11:31:02.189Z,102326.47
2023-02-12T11:33:29.476Z,102330.78
2023-02-12T11:35:57.077Z,102359.03
2023-02-12T11:38:27.376Z,102369.47
2023-02-12T11:40:54.844Z,102369.91
2023-02-12T11:43:21.044Z,102374.19
2023-02-12T11:45:50.955Z,102371.16
2023-02-12T11:48:30.654Z,102370.38
2023-02-12T11:50:57.728Z,102355.09
2023-02-12T11:53:33.430Z,102361.81
2023-02-12T11:56:01.196Z,102361.47
2023-02-12T11:58:27.655Z,102340.31
2023-02-12T12:01:04.748Z,102349.56
2023-02-12T12:03:49.468Z,102365.25
2023-02-12T12:06:23.135Z,102381.53
2023-02-12T12:09:21.872Z,102381.72
2023-02-12T12:11:58.864Z,102409.72
2023-02-12T12:14:27.362Z,102415.66
2023-02-12T12:16:55.045Z,102404.66
2023-02-12T12:19:29.163Z,102420.38
2023-02-12T12:22:10.773Z,102399.84
2023-02-12T12:24:44.746Z,102371.91
2023-02-12T12:27:12.866Z,102395.44
2023-02-12T12:29:44.841Z,102401.50
2023-02-12T12:32:11.445Z,102346.72
2023-02-12T12:34:37.638Z,102328.63
2023-02-12T12:37:15.348Z,102304.47
2023-02-12T12:39:41.497Z,102339.88
2023-02-12T12:42:07.665Z,102316.78
2023-02-12T12:44:47.791Z,102277.81
2023-02-12T12:47:32.796Z,102303.50
2023-02-12T12:50:14.517Z,102328.25
2023-02-12T12:52:44.500Z,102319.22
2023-02-12T12:55:16.732Z,102316.00
2023-02-12T12:57:47.977Z,102310.94
2023-02-12T13:00:25.680Z,102318.78
2023-02-12T13:03:10.739Z,102301.69
2023-02-12T13:05:47.597Z,102356.97
2023-02-12T13:08:23.482Z,102351.16
2023-02-12T13:10:51.202Z,102231.41
2023-02-12T13:13:33.456Z,102250.69
2023-02-12T13:16:11.979Z,102212.72
2023-02-12T13:18:40.922Z,102188.59
2023-02-12T13:21:10.146Z,102165.50
2023-02-12T13:23:36.342Z,102066.06
2023-02-12T13:26:02.516Z,102003.41
2023-02-12T13:28:35.836Z,102068.44
2023-02-12T13:31:05.083Z,102095.19
2023-02-12T13:33:55.959Z,101991.38
2023-02-12T13:36:22.156Z,102028.50
2023-02-12T13:38:53.023Z,102020.69
2023-02-12T13:41:19.220Z,101989.97
2023-02-12T13:44:05.718Z,102081.97
2023-02-12T13:46:45.593Z,102201.03
2023-02-12T13:49:35.216Z,102102.22
2023-02-12T13:52:12.056Z,102093.63
2023-02-12T13:54:47.461Z,102137.16
2023-02-12T13:57:14.882Z,102168.09
2023-02-12T13:59:41.879Z,102181.59
2023-02-12T14:02:46.716Z,102235.19
2023-02-12T14:05:17.045Z,102212.91
2023-02-12T14:07:44.182Z,102186.94
2023-02-12T14:10:42.873Z,102205.03
2023-02-12T14:13:16.137Z,102263.03
2023-02-12T14:15:43.238Z,102303.19
2023-02-12T14:18:22.963Z,102345.16
2023-02-12T14:20:54.111Z,102336.06
2023-02-12T14:23:21.092Z,102326.03
2023-02-12T14:25:56.438Z,102373.75
2023-02-12T14:28:27.328Z,102415.53
2023-02-12T14:31:23.310Z,102385.59
2023-02-12T14:33:50.555Z,102378.72
2023-02-12T14:36:29.250Z,102421.84
2023-02-12T14:38:59.710Z,102478.66
2023-02-12T14:41:28.916Z,102479.63
2023-02-12T14:44:13.758Z,102539.53
2023-02-12T14:46:55.724Z,102587.69
2023-02-12T14:49:40.521Z,102636.03
2023-02-12T14:52:29.761Z,102685.81
2023-02-12T14:54:59.455Z,102734.34
2023-02-12T14:57:29.456Z,102761.47
2023-02-12T14:59:56.464Z,102783.44
2023-02-12T15:02:24.156Z,102795.97
2023-02-12T15:04:50.624Z,102809.94
2023-02-12T15:07:20.070Z,102822.94
2023-02-12T15:09:47.350Z,102837.31
2023-02-12T15:12:32.691Z,102841.72
2023-02-12T15:15:04.547Z,102836.66
2023-02-12T15:17:32.423Z,102827.84
2023-02-12T15:20:02.862Z,102823.72
2023-02-12T15:22:32.117Z,102829.56
2023-02-12T15:25:16.833Z,102828.47
2023-02-12T15:27:43.990Z,102830.09
2023-02-12T15:30:25.566Z,102828.81
2023-02-12T15:32:52.702Z,102815.97
2023-02-12T15:35:20.287Z,102810.94
2023-02-12T15:37:46.492Z,102794.81
2023-02-12T15:40:14.000Z,102780.38
2023-02-12T15:42:40.486Z,102765.41
2023-02-12T15:45:15.927Z,102747.34
2023-02-12T15:47:42.494Z,102725.69
2023-02-12T15:50:12.630Z,102697.41
2023-02-12T15:52:39.411Z,102670.25
2023-02-12T15:55:05.816Z,102651.56
2023-02-12T15:57:32.132Z,102625.06
2023-02-12T16:00:09.189Z,102600.38
2023-02-12T16:02:35.491Z,102559.06
2023-02-12T16:05:02.261Z,102533.38
2023-02-12T16:07:29.385Z,102496.47
2023-02-12T16:09:55.601Z,102467.22
2023-02-12T16:12:22.654Z,102435.66
2023-02-12T16:14:49.748Z,102401.38
2023-02-12T16:17:20.316Z,102346.13
2023-02-12T16:20:01.558Z,102292.97
2023-02-12T16:22:32.190Z,102231.88
2023-02-12T16:24:58.398Z,102165.94
2023-02-12T16:27:28.602Z,102097.69
2023-02-12T16:29:55.766Z,102024.22
2023-02-12T16:32:29.163Z,101961.28
2023-02-12T16:34:59.359Z,101877.25
2023-02-12T16:37:34.836Z,101797.78
2023-02-12T16:40:13.238Z,101708.50
2023-02-12T16:42:48.444Z,101627.31
2023-02-12T16:45:26.832Z,101531.63
2023-02-12T16:48:00.284Z,101436.19
2023-02-12T16:50:27.459Z,101359.38
2023-02-12T16:52:59.191Z,101281.56
2023-02-12T16:55:25.390Z,101207.13
2023-02-12T16:57:51.615Z,101148.31
2023-02-12T17:00:17.943Z,101071.91
2023-02-12T17:02:44.165Z,101006.88
2023-02-12T17:05:10.373Z,100958.25
2023-02-12T17:07:36.627Z,100909.28
2023-02-12T17:10:03.000Z,100863.44
2023-02-12T17:12:29.207Z,100819.84
2023-02-12T17:14:55.415Z,100777.63
2023-02-12T17:17:21.637Z,100741.47
2023-02-12T17:19:47.851Z,100710.25
2023-02-12T17:22:18.462Z,100677.72
2023-02-12T17:24:44.666Z,100662.78
2023-02-12T17:27:10.877Z,100642.63
2023-02-12T17:29:37.078Z,100611.66
2023-02-12T17:32:03.344Z,100582.16
2023-02-12T17:34:32.089Z,100563.97
2023-02-12T17:37:06.013Z,100543.59
2023-02-12T17:39:32.220Z,100524.09
2023-02-12T17:41:58.549Z,100509.69
2023-02-12T17:44:24.773Z,100498.50
2023-02-12T17:46:51.021Z,100500.19
2023-02-12T17:49:17.251Z,100489.25
2023-02-12T17:51:43.457Z,100493.50
2023-02-12T17:54:09.714Z,100488.31
2023-02-12T17:56:35.927Z,100476.78
2023-02-12T17:59:02.148Z,100474.44
2023-02-12T18:01:28.526Z,100469.47
2023-02-12T18:03:57.063Z,100474.53
2023-02-12T18:06:27.521Z,100489.47
2023-02-12T18:08:53.754Z,100517.25
2023-02-12T18:11:19.957Z,100532.25
2023-02-12T18:13:46.335Z,100540.28
2023-02-12T18:16:12.545Z,100565.47
2023-02-12T18:18:38.769Z,100582.06
2023-02-12T18:21:12.146Z,100600.25
2023-02-12T18:23:40.867Z,100607.25
2023-02-12T18:26:14.299Z,100614.22
2023-02-12T18:28:40.551Z,100616.22
2023-02-12T18:31:07.316Z,100641.66
2023-02-12T18:33:33.663Z,100642.31
2023-02-12T18:36:09.858Z,100645.34
2023-02-12T18:38:36.302Z,100650.41
2023-02-12T18:41:09.216Z,100648.94
2023-02-12T18:43:35.464Z,100649.16
2023-02-12T18:46:12.668Z,100641.81
2023-02-12T18:48:38.896Z,100654.59
2023-02-12T18:51:05.547Z,100665.63
2023-02-12T18:53:31.742Z,100671.59
2023-02-12T18:55:57.946Z,100680.41
2023-02-12T18:58:24.181Z,100706.59
2023-02-12T19:01:03.475Z,100715.38
2023-02-12T19:03:29.730Z,100735.72
2023-02-12T19:06:01.841Z,100738.75
2023-02-12T19:08:28.046Z,100732.44
2023-02-12T19:10:56.229Z,100736.97
2023-02-12T19:13:22.697Z,100739.41
2023-02-12T19:15:48.925Z,100750.78
2023-02-12T19:18:15.152Z,100744.00
2023-02-12T19:20:41.376Z,100738.03
2023-02-12T19:23:07.629Z,100731.03
2023-02-12T19:25:36.960Z,100731.47
2023-02-12T19:28:03.219Z,100734.63
2023-02-12T19:30:31.926Z,100740.03
2023-02-12T19:32:58.161Z,100743.38
2023-02-12T19:35:24.437Z,100757.22
2023-02-12T19:37:53.042Z,100757.44
2023-02-12T19:40:19.425Z,100766.81
2023-02-12T19:42:45.761Z,100764.41
2023-02-12T19:45:12.133Z,100769.03
2023-02-12T19:47:38.370Z,100771.41
2023-02-12T19:50:04.752Z,100776.47
2023-02-12T19:52:30.952Z,100785.59
2023-02-12T19:54:57.171Z,100790.69
2023-02-12T19:57:23.398Z,100788.25
2023-02-12T19:59:51.914Z,100790.84
2023-02-12T20:02:18.159Z,100796.03
2023-02-12T20:04:44.392Z,100811.63
2023-02-12T20:07:10.629Z,100824.81
2023-02-12T20:09:36.837Z,100825.59
2023-02-12T20:12:03.142Z,100831.81
2023-02-12T20:14:29.364Z,100846.78
2023-02-12T20:16:55.767Z,100861.22
2023-02-12T20:19:23.003Z,100880.81
2023-02-12T20:21:50.469Z,100889.19
2023-02-12T20:24:16.713Z,100902.38
2023-02-12T20:26:42.930Z,100909.56
2023-02-12T20:29:09.151Z,100921.72
2023-02-12T20:31:45.350Z,100928.94
2023-02-12T20:34:12.579Z,100940.53
2023-02-12T20:36:39.317Z,100943.72
2023-02-12T20:39:08.085Z,100950.34
2023-02-12T20:41:34.362Z,100972.69
2023-02-12T20:44:00.579Z,100995.25
2023-02-12T20:46:26.803Z,101011.63
2023-02-12T20:48:53.005Z,101032.41
2023-02-12T20:51:21.748Z,101061.34
2023-02-12T20:53:50.739Z,101083.13
2023-02-12T20:56:17.959Z,101096.28
2023-02-12T20:58:44.297Z,101116.25
2023-02-12T21:01:15.878Z,101132.63
2023-02-12T21:03:42.190Z,101134.41
2023-02-12T21:06:08.444Z,101146.59
2023-02-12T21:08:38.059Z,101153.38
2023-02-12T21:11:08.278Z,101165.72
2023-02-12T21:13:34.486Z,101167.53
2023-02-12T21:16:07.989Z,101167.53
2023-02-12T21:18:34.256Z,101169.31
2023-02-12T21:21:01.344Z,101176.13
2023-02-12T21:23:27.558Z,101187.69
2023-02-12T21:26:07.375Z,101188.13
2023-02-12T21:28:48.670Z,101192.31
2023-02-12T21:31:15.925Z,101195.50
2023-02-12T21:33:52.449Z,101184.34
2023-02-12T21:39:25.555Z,101192.50
2023-02-12T21:41:58.965Z,101189.91
2023-02-12T21:44:25.881Z,101190.88
2023-02-12T21:46:52.383Z,101211.63
2023-02-12T21:49:19.118Z,101213.25
2023-02-12T21:51:45.395Z,101225.81
2023-02-12T21:54:19.101Z,101241.38
2023-02-12T21:56:48.818Z,101262.34
2023-02-12T22:00:02.879Z,101297.66
2023-02-12T22:02:29.172Z,101318.63
2023-02-12T22:04:55.377Z,101353.38
2023-02-12T22:07:21.624Z,101391.06
2023-02-12T22:09:47.844Z,101421.47
2023-02-12T22:12:14.106Z,101461.38
2023-02-12T22:14:40.322Z,101508.28
2023-02-12T22:17:06.869Z,101546.22
2023-02-12T22:19:33.116Z,101580.75
2023-02-12T22:21:59.334Z,101604.28
2023-02-12T22:24:25.604Z,101640.78
2023-02-12T22:26:51.842Z,101663.16
2023-02-12T22:29:18.083Z,101678.50
2023-02-12T22:31:44.720Z,101690.28
2023-02-12T22:34:11.973Z,101699.84
2023-02-12T22:36:38.497Z,101711.66
2023-02-12T22:39:04.903Z,101720.25
2023-02-12T22:41:31.300Z,101726.88
2023-02-12T22:43:58.357Z,101732.59
2023-02-12T22:46:24.583Z,101726.81
2023-02-12T22:48:50.810Z,101725.59
2023-02-12T22:51:21.019Z,101707.22
2023-02-12T22:53:47.337Z,101713.22
2023-02-12T22:56:13.563Z,101730.59
2023-02-12T22:58:39.784Z,101723.97
2023-02-12T23:01:06.733Z,101739.72
2023-02-12T23:03:33.139Z,101750.47
2023-02-12T23:06:07.529Z,101757.28
2023-02-12T23:08:34.068Z,101779.09
2023-02-12T23:11:00.276Z,101798.41
2023-02-12T23:13:29.813Z,101801.03
2023-02-12T23:15:56.603Z,101808.81
2023-02-12T23:18:22.849Z,101807.19
2023-02-12T23:20:49.278Z,101808.50
2023-02-12T23:23:15.607Z,101815.34
2023-02-12T23:25:41.891Z,101821.88
2023-02-12T23:28:08.268Z,101835.66
2023-02-12T23:30:34.558Z,101852.22
2023-02-12T23:33:00.806Z,101868.19
2023-02-12T23:35:27.060Z,101885.56
2023-02-12T23:37:53.295Z,101894.53
2023-02-12T23:40:19.553Z,101894.72
2023-02-12T23:42:45.775Z,101894.53
2023-02-12T23:45:12.041Z,101900.69
2023-02-12T23:47:38.286Z,101907.28
2023-02-12T23:50:05.031Z,101921.28
2023-02-12T23:52:31.256Z,101917.25
2023-02-12T23:54:57.464Z,101920.84
2023-02-12T23:57:23.698Z,101936.56
2023-02-12T23:59:49.898Z,101930.94
